createdAt,value
2023-03-03T00:01:44.637Z,33.27
2023-03-03T00:04:11.240Z,31.80
2023-03-03T00:06:37.662Z,34.90
2023-03-03T00:09:04.095Z,32.63
2023-03-03T00:11:30.528Z,29.80
2023-03-03T00:13:57.035Z,33.03
2023-03-03T00:16:34.402Z,30.63
2023-03-03T00:19:01.394Z,31.00
2023-03-03T00:21:42.256Z,27.47
2023-03-03T00:24:18.045Z,29.70
2023-03-03T00:26:56.139Z,28.43
2023-03-03T00:29:36.911Z,29.53
2023-03-03T00:32:18.027Z,28.47
2023-03-03T00:34:44.991Z,30.53
2023-03-03T00:37:27.711Z,32.03
2023-03-03T00:40:02.916Z,27.93
2023-03-03T00:42:29.381Z,31.70
2023-03-03T00:45:00.620Z,30.27
2023-03-03T00:47:31.856Z,30.00
2023-03-03T00:50:07.738Z,33.37
2023-03-03T00:52:40.099Z,33.80
2023-03-03T00:55:08.055Z,29.33
2023-03-03T00:57:34.800Z,32.67
2023-03-03T01:00:01.551Z,32.63
2023-03-03T01:02:31.004Z,28.97
2023-03-03T01:04:57.514Z,29.63
2023-03-03T01:07:24.144Z,35.83
2023-03-03T01:09:50.549Z,27.07
2023-03-03T01:12:17.067Z,31.77
2023-03-03T01:14:45.442Z,29.30
2023-03-03T01:17:12.771Z,29.77
2023-03-03T01:19:39.362Z,33.93
2023-03-03T01:22:06.253Z,33.97
2023-03-03T01:24:33.426Z,35.37
2023-03-03T01:27:00.448Z,34.70
2023-03-03T01:29:26.973Z,33.67
2023-03-03T01:31:53.847Z,31.80
2023-03-03T01:34:21.724Z,30.33
2023-03-03T01:36:48.189Z,29.93
2023-03-03T01:39:14.934Z,33.60
2023-03-03T01:41:41.556Z,31.97
2023-03-03T01:44:14.156Z,30.43
2023-03-03T01:47:11.373Z,33.60
2023-03-03T01:49:42.025Z,31.83
2023-03-03T01:52:21.905Z,29.97
2023-03-03T01:54:54.066Z,29.77
2023-03-03T01:57:28.774Z,32.00
2023-03-03T01:59:57.344Z,31.23
2023-03-03T02:02:27.567Z,32.80
2023-03-03T02:04:54.212Z,35.43
2023-03-03T02:07:22.875Z,33.17
2023-03-03T02:10:10.855Z,38.90
2023-03-03T02:12:45.409Z,37.17
2023-03-03T02:15:16.772Z,33.30
2023-03-03T02:17:44.054Z,34.80
2023-03-03T02:20:29.098Z,35.87
2023-03-03T02:23:07.757Z,33.27
2023-03-03T02:25:42.723Z,35.37
2023-03-03T02:28:09.900Z,37.27
2023-03-03T02:30:39.997Z,36.73
2023-03-03T02:33:08.170Z,33.40
2023-03-03T02:35:38.623Z,34.10
2023-03-03T02:38:34.867Z,36.43
2023-03-03T02:41:16.580Z,34.93
2023-03-03T02:43:53.128Z,30.97
2023-03-03T02:46:19.996Z,29.60
2023-03-03T02:48:46.665Z,35.37
2023-03-03T02:51:13.481Z,34.53
2023-03-03T02:53:40.808Z,34.10
2023-03-03T02:56:09.415Z,31.63
2023-03-03T02:58:37.047Z,34.10
2023-03-03T03:01:04.890Z,32.93
2023-03-03T03:03:31.945Z,35.80
2023-03-03T03:06:03.337Z,33.37
2023-03-03T03:08:29.873Z,33.47
2023-03-03T03:10:57.385Z,37.50
2023-03-03T03:13:26.315Z,35.93
2023-03-03T03:15:53.324Z,33.93
2023-03-03T03:18:19.866Z,38.20
2023-03-03T03:20:48.466Z,34.57
2023-03-03T03:23:16.894Z,36.03
2023-03-03T03:25:46.597Z,37.03
2023-03-03T03:28:19.335Z,33.43
2023-03-03T03:30:46.386Z,34.53
2023-03-03T03:33:13.248Z,36.80
2023-03-03T03:35:45.452Z,33.47
2023-03-03T03:38:14.184Z,33.07
2023-03-03T03:40:41.874Z,35.43
2023-03-03T03:43:09.617Z,31.80
2023-03-03T03:45:36.165Z,32.23
2023-03-03T03:48:03.894Z,35.17
2023-03-03T03:50:32.085Z,38.00
2023-03-03T03:52:58.554Z,30.67
2023-03-03T03:55:25.069Z,35.07
2023-03-03T03:57:52.254Z,33.93
2023-03-03T04:00:20.247Z,34.70
2023-03-03T04:02:53.625Z,35.03
2023-03-03T04:05:21.174Z,37.13
2023-03-03T04:07:47.751Z,34.40
2023-03-03T04:10:17.984Z,38.13
2023-03-03T04:12:45.329Z,35.47
2023-03-03T04:15:15.183Z,36.73
2023-03-03T04:17:42.922Z,39.20
2023-03-03T04:20:12.801Z,37.10
2023-03-03T04:22:39.233Z,34.13
2023-03-03T04:25:06.465Z,38.20
2023-03-03T04:27:38.325Z,38.50
2023-03-03T04:30:06.456Z,39.23
2023-03-03T04:32:33.984Z,39.37
2023-03-03T04:35:08.213Z,41.47
2023-03-03T04:37:38.969Z,39.33
2023-03-03T04:40:07.910Z,37.93
2023-03-03T04:42:35.166Z,37.67
2023-03-03T04:45:03.368Z,36.97
2023-03-03T04:47:32.280Z,40.53
2023-03-03T04:49:58.901Z,39.40
2023-03-03T04:52:25.531Z,39.00
2023-03-03T04:54:52.065Z,38.10
2023-03-03T04:57:18.488Z,39.13
2023-03-03T04:59:45.123Z,36.07
2023-03-03T05:02:13.166Z,35.03
2023-03-03T05:04:39.611Z,42.37
2023-03-03T05:07:06.284Z,35.40
2023-03-03T05:09:32.803Z,42.27
2023-03-03T05:11:59.535Z,38.67
2023-03-03T05:14:27.031Z,38.17
2023-03-03T05:16:54.317Z,38.00
2023-03-03T05:19:20.710Z,39.83
2023-03-03T05:21:47.136Z,39.67
2023-03-03T05:24:14.156Z,39.70
2023-03-03T05:26:41.164Z,38.83
2023-03-03T05:29:08.741Z,35.60
2023-03-03T05:31:35.571Z,36.27
2023-03-03T05:34:02.116Z,40.43
2023-03-03T05:36:28.599Z,33.93
2023-03-03T05:38:54.976Z,36.03
2023-03-03T05:41:21.799Z,36.03
2023-03-03T05:43:48.361Z,37.13
2023-03-03T05:46:15.085Z,35.07
2023-03-03T05:48:41.945Z,34.17
2023-03-03T05:51:08.773Z,33.37
2023-03-03T05:53:35.322Z,36.50
2023-03-03T05:56:04.251Z,36.97
2023-03-03T05:58:30.857Z,35.37
2023-03-03T06:00:57.540Z,37.80
2023-03-03T06:03:24.266Z,36.73
2023-03-03T06:05:50.682Z,37.13
2023-03-03T06:08:17.090Z,37.23
2023-03-03T06:10:43.647Z,39.77
2023-03-03T06:13:12.829Z,38.67
2023-03-03T06:15:39.312Z,37.87
2023-03-03T06:18:05.753Z,34.53
2023-03-03T06:20:33.087Z,37.57
2023-03-03T06:22:59.737Z,39.03
2023-03-03T06:25:26.155Z,35.97
2023-03-03T06:27:52.596Z,38.00
2023-03-03T06:30:19.383Z,35.93
2023-03-03T06:32:46.033Z,39.13
2023-03-03T06:35:13.039Z,39.40
2023-03-03T06:37:39.810Z,39.77
2023-03-03T06:40:07.412Z,36.07
2023-03-03T06:42:33.941Z,40.60
2023-03-03T06:45:00.622Z,36.30
2023-03-03T06:47:27.929Z,36.47
2023-03-03T06:49:54.396Z,40.93
2023-03-03T06:52:26.453Z,40.77
2023-03-03T06:54:58.883Z,38.27
2023-03-03T06:57:33.392Z,39.37
2023-03-03T07:00:28.483Z,42.77
2023-03-03T07:03:02.543Z,38.60
2023-03-03T07:05:29.616Z,38.13
2023-03-03T07:07:57.237Z,43.73
2023-03-03T07:10:30.937Z,38.37
2023-03-03T07:13:06.857Z,39.43
2023-03-03T07:15:35.807Z,38.63
2023-03-03T07:18:04.510Z,34.57
2023-03-03T07:20:38.775Z,38.70
2023-03-03T07:23:42.457Z,38.73
2023-03-03T07:26:18.821Z,39.50
2023-03-03T07:28:54.130Z,40.10
2023-03-03T07:31:39.179Z,39.43
2023-03-03T07:34:24.185Z,35.60
2023-03-03T07:36:54.758Z,41.00
2023-03-03T07:39:40.506Z,35.13
2023-03-03T07:42:27.645Z,38.90
2023-03-03T07:45:04.206Z,39.87
2023-03-03T07:47:35.689Z,39.70
2023-03-03T07:50:15.568Z,42.23
2023-03-03T07:52:48.708Z,39.17
2023-03-03T07:55:35.505Z,35.80
2023-03-03T07:58:10.902Z,29.27
2023-03-03T08:00:40.505Z,33.30
2023-03-03T08:03:17.617Z,40.77
2023-03-03T08:05:46.990Z,41.30
2023-03-03T08:08:36.720Z,38.90
2023-03-03T08:11:09.645Z,39.37
2023-03-03T08:13:38.737Z,38.47
2023-03-03T08:16:11.039Z,42.43
2023-03-03T08:18:40.352Z,43.53
2023-03-03T08:21:26.188Z,43.53
2023-03-03T08:23:53.708Z,36.60
2023-03-03T08:26:22.544Z,41.03
2023-03-03T08:28:49.859Z,42.13
2023-03-03T08:31:30.882Z,41.43
2023-03-03T08:34:04.557Z,41.60
2023-03-03T08:36:33.050Z,43.43
2023-03-03T08:39:04.180Z,42.80
2023-03-03T08:41:30.577Z,42.90
2023-03-03T08:43:56.992Z,40.47
2023-03-03T08:46:23.527Z,37.00
2023-03-03T08:48:50.024Z,39.47
2023-03-03T08:51:16.777Z,45.53
2023-03-03T08:53:43.340Z,44.10
2023-03-03T08:56:10.384Z,41.77
2023-03-03T08:58:36.915Z,51.03
2023-03-03T09:01:04.382Z,48.67
2023-03-03T09:03:31.314Z,52.53
2023-03-03T09:05:57.754Z,50.60
2023-03-03T09:08:24.211Z,58.30
2023-03-03T09:10:50.786Z,61.30
2023-03-03T09:13:19.569Z,58.77
2023-03-03T09:15:47.038Z,56.37
2023-03-03T09:18:16.705Z,58.37
2023-03-03T09:20:46.352Z,54.10
2023-03-03T09:23:37.113Z,55.27
2023-03-03T09:26:18.592Z,56.40
2023-03-03T09:28:45.271Z,49.23
2023-03-03T09:31:26.175Z,58.63
2023-03-03T09:33:57.499Z,61.50
2023-03-03T09:36:35.357Z,58.80
2023-03-03T09:39:16.266Z,60.00
2023-03-03T09:41:45.437Z,58.33
2023-03-03T09:44:37.967Z,60.43
2023-03-03T09:47:07.346Z,56.27
2023-03-03T09:50:13.384Z,54.97
2023-03-03T09:53:16.902Z,59.43
2023-03-03T09:56:15.639Z,54.13
2023-03-03T09:59:00.747Z,52.03
2023-03-03T10:01:47.144Z,55.73
2023-03-03T10:04:23.115Z,51.90
2023-03-03T10:07:07.178Z,53.27
2023-03-03T10:09:47.471Z,56.80
2023-03-03T10:12:27.316Z,58.10
2023-03-03T10:15:10.166Z,54.47
2023-03-03T10:17:45.332Z,54.40
2023-03-03T10:20:50.628Z,47.77
2023-03-03T10:23:28.017Z,55.67
2023-03-03T10:26:34.841Z,56.33
2023-03-03T10:29:26.269Z,56.57
2023-03-03T10:32:18.969Z,56.07
2023-03-03T10:35:06.033Z,55.60
2023-03-03T10:37:55.528Z,57.23
2023-03-03T10:40:49.940Z,52.63
2023-03-03T10:43:35.269Z,52.50
2023-03-03T10:46:10.920Z,55.93
2023-03-03T10:48:43.430Z,49.67
2023-03-03T10:51:36.761Z,51.00
2023-03-03T10:54:14.501Z,58.60
2023-03-03T10:56:57.664Z,50.53
2023-03-03T10:59:31.445Z,53.73
2023-03-03T11:02:22.707Z,49.57
2023-03-03T11:05:15.426Z,51.77
2023-03-03T11:07:50.128Z,54.83
2023-03-03T11:13:44.604Z,52.23
2023-03-03T11:16:35.075Z,47.03
2023-03-03T11:19:38.381Z,46.27
2023-03-03T11:22:34.353Z,46.47
2023-03-03T11:25:38.452Z,54.90
2023-03-03T11:28:37.482Z,58.77
2023-03-03T11:31:33.816Z,54.07
2023-03-03T11:34:08.914Z,56.40
2023-03-03T11:36:57.988Z,56.93
2023-03-03T11:39:28.806Z,55.67
2023-03-03T11:42:11.700Z,51.77
2023-03-03T11:44:43.962Z,53.63
2023-03-03T11:47:20.553Z,53.83
2023-03-03T11:50:03.588Z,51.80
2023-03-03T11:52:48.817Z,53.20
2023-03-03T11:55:30.459Z,48.37
2023-03-03T11:58:07.926Z,53.23
2023-03-03T12:00:48.451Z,51.43
2023-03-03T12:03:29.069Z,54.67
2023-03-03T12:06:12.700Z,53.70
2023-03-03T12:08:59.878Z,48.63
2023-03-03T12:11:32.645Z,47.17
2023-03-03T12:14:28.783Z,47.23
2023-03-03T12:16:55.120Z,50.67
2023-03-03T12:19:57.218Z,49.27
2023-03-03T12:22:35.854Z,53.40
2023-03-03T12:25:24.301Z,48.93
2023-03-03T12:28:06.413Z,49.03
2023-03-03T12:30:49.750Z,50.03
2023-03-03T12:33:35.967Z,55.00
2023-03-03T12:36:19.743Z,51.83
2023-03-03T12:38:58.215Z,52.80
2023-03-03T12:41:43.656Z,49.10
2023-03-03T12:44:22.874Z,45.07
2023-03-03T12:47:23.273Z,43.03
2023-03-03T12:50:09.347Z,49.53
2023-03-03T12:52:54.788Z,45.13
2023-03-03T12:55:40.040Z,42.20
2023-03-03T12:58:25.338Z,42.97
2023-03-03T13:01:10.941Z,43.03
2023-03-03T13:04:05.539Z,46.87
2023-03-03T13:06:43.867Z,42.93
2023-03-03T13:09:28.651Z,41.03
2023-03-03T13:12:08.925Z,45.03
2023-03-03T13:14:46.880Z,42.83
2023-03-03T13:17:17.926Z,47.10
2023-03-03T13:19:52.526Z,39.27
2023-03-03T13:22:19.033Z,37.97
2023-03-03T13:25:24.430Z,37.77
2023-03-03T13:27:55.312Z,36.60
2023-03-03T13:30:26.051Z,39.37
2023-03-03T13:33:14.972Z,36.73
2023-03-03T13:35:50.126Z,36.27
2023-03-03T13:38:27.989Z,39.00
2023-03-03T13:41:05.219Z,35.17
2023-03-03T13:43:47.300Z,34.90
2023-03-03T13:46:30.125Z,35.37
2023-03-03T13:49:26.736Z,28.90
2023-03-03T13:52:02.392Z,38.87
2023-03-03T13:54:44.664Z,37.13
2023-03-03T13:57:31.720Z,33.77
2023-03-03T14:00:13.714Z,33.83
2023-03-03T14:03:03.962Z,34.83
2023-03-03T14:05:41.455Z,34.03
2023-03-03T14:08:36.041Z,32.83
2023-03-03T14:11:19.288Z,33.00
2023-03-03T14:14:10.784Z,36.33
2023-03-03T14:16:52.248Z,33.17
2023-03-03T14:19:40.232Z,38.37
2023-03-03T14:22:26.256Z,32.77
2023-03-03T14:25:05.408Z,38.97
2023-03-03T14:27:36.491Z,38.70
2023-03-03T14:30:21.965Z,43.97
2023-03-03T14:33:10.249Z,40.63
2023-03-03T14:35:41.086Z,42.20
2023-03-03T14:38:16.739Z,39.73
2023-03-03T14:40:45.974Z,42.27
2023-03-03T14:43:24.850Z,41.33
2023-03-03T14:45:55.171Z,41.97
2023-03-03T14:48:21.751Z,45.63
2023-03-03T14:51:27.280Z,41.03
2023-03-03T14:53:54.160Z,41.23
2023-03-03T14:56:24.877Z,45.87
2023-03-03T14:58:54.296Z,43.10
2023-03-03T15:01:32.943Z,44.80
2023-03-03T15:04:10.439Z,47.63
2023-03-03T15:06:49.143Z,49.67
2023-03-03T15:09:48.326Z,54.73
2023-03-03T15:12:22.884Z,46.53
2023-03-03T15:15:05.614Z,45.90
2023-03-03T15:17:35.840Z,56.37
2023-03-03T15:20:27.298Z,60.47
2023-03-03T15:23:13.751Z,68.93
2023-03-03T15:26:04.934Z,67.70
2023-03-03T15:29:05.114Z,70.03
2023-03-03T15:31:58.710Z,70.10
2023-03-03T15:34:39.931Z,69.47
2023-03-03T15:37:19.051Z,65.63
2023-03-03T15:39:54.988Z,74.53
2023-03-03T15:42:39.253Z,78.47
2023-03-03T15:45:34.076Z,80.83
2023-03-03T15:48:19.986Z,90.07
2023-03-03T15:51:15.509Z,81.77
2023-03-03T15:53:54.288Z,87.57
2023-03-03T15:56:31.462Z,78.30
2023-03-03T15:59:22.739Z,70.90
2023-03-03T16:02:11.072Z,66.60
2023-03-03T16:04:45.837Z,67.77
2023-03-03T16:07:42.628Z,64.93
2023-03-03T16:10:12.509Z,61.43
2023-03-03T16:13:04.506Z,49.77
2023-03-03T16:15:44.394Z,47.73
2023-03-03T16:18:36.517Z,42.53
2023-03-03T16:21:17.739Z,44.30
2023-03-03T16:23:48.424Z,41.57
2023-03-03T16:26:29.881Z,42.17
2023-03-03T16:29:28.289Z,41.97
2023-03-03T16:32:25.713Z,43.77
2023-03-03T16:35:24.398Z,45.47
2023-03-03T16:38:00.131Z,39.73
2023-03-03T16:40:36.075Z,45.87
2023-03-03T16:43:18.771Z,44.80
2023-03-03T16:45:46.375Z,41.30
2023-03-03T16:48:35.299Z,43.90
2023-03-03T16:51:24.654Z,42.43
2023-03-03T16:54:28.004Z,40.53
2023-03-03T16:57:08.330Z,46.27
2023-03-03T17:00:21.120Z,43.03
2023-03-03T17:03:13.759Z,46.13
2023-03-03T17:05:52.212Z,38.20
2023-03-03T17:08:39.685Z,40.53
2023-03-03T17:11:35.222Z,44.17
2023-03-03T17:14:35.890Z,43.50
2023-03-03T17:17:40.749Z,37.57
2023-03-03T17:20:28.754Z,37.67
2023-03-03T17:23:15.812Z,39.33
2023-03-03T17:26:01.006Z,39.07
2023-03-03T17:28:42.320Z,45.67
2023-03-03T17:31:48.082Z,63.73
2023-03-03T17:34:37.740Z,54.10
2023-03-03T17:37:25.734Z,70.40
2023-03-03T17:40:20.276Z,72.07
2023-03-03T17:43:06.675Z,46.47
2023-03-03T17:45:41.148Z,47.20
2023-03-03T17:48:25.761Z,41.10
2023-03-03T17:51:01.607Z,39.33
2023-03-03T17:53:46.146Z,41.27
2023-03-03T17:56:22.677Z,42.50
2023-03-03T17:59:15.406Z,40.73
2023-03-03T18:02:24.913Z,42.70
2023-03-03T18:05:12.959Z,39.70
2023-03-03T18:07:54.623Z,40.97
2023-03-03T18:10:48.562Z,39.63
2023-03-03T18:13:30.133Z,45.43
2023-03-03T18:16:21.653Z,48.77
2023-03-03T18:19:08.083Z,39.97
2023-03-03T18:21:44.101Z,43.50
2023-03-03T18:24:24.962Z,44.13
2023-03-03T18:26:55.104Z,41.17
2023-03-03T18:29:27.970Z,44.93
2023-03-03T18:31:57.134Z,44.03
2023-03-03T18:34:32.021Z,61.27
2023-03-03T18:37:21.707Z,43.27
2023-03-03T18:40:09.517Z,40.57
2023-03-03T18:42:45.275Z,43.53
2023-03-03T18:45:19.261Z,41.80
2023-03-03T18:48:01.047Z,42.97
2023-03-03T18:50:35.377Z,41.03
2023-03-03T18:53:10.622Z,40.87
2023-03-03T18:55:43.355Z,42.83
2023-03-03T18:58:16.032Z,44.33
2023-03-03T19:00:54.882Z,43.07
2023-03-03T19:03:38.224Z,47.80
2023-03-03T19:06:08.552Z,44.17
2023-03-03T19:08:46.213Z,70.67
2023-03-03T19:11:50.407Z,50.33
2023-03-03T19:14:16.735Z,44.43
2023-03-03T19:16:44.186Z,47.63
2023-03-03T19:19:17.724Z,46.00
2023-03-03T19:21:51.154Z,46.87
2023-03-03T19:24:23.337Z,45.93
2023-03-03T19:27:05.252Z,46.37
2023-03-03T19:29:46.777Z,43.70
2023-03-03T19:32:42.755Z,41.87
2023-03-03T19:35:20.368Z,39.07
2023-03-03T19:38:15.959Z,41.20
2023-03-03T19:40:58.206Z,44.07
2023-03-03T19:44:07.993Z,44.53
2023-03-03T19:49:21.963Z,42.03
2023-03-03T19:52:07.767Z,38.40
2023-03-03T19:54:45.039Z,40.47
2023-03-03T19:57:25.011Z,44.63
2023-03-03T20:00:05.463Z,44.00
2023-03-03T20:02:53.428Z,50.13
2023-03-03T20:05:42.835Z,43.80
2023-03-03T20:08:25.869Z,42.87
2023-03-03T20:11:02.713Z,45.30
2023-03-03T20:14:00.266Z,39.87
2023-03-03T20:16:29.706Z,40.70
2023-03-03T20:19:10.136Z,38.30
2023-03-03T20:22:06.812Z,31.33
2023-03-03T20:24:58.565Z,27.43
2023-03-03T20:27:47.529Z,24.00
2023-03-03T20:30:20.197Z,19.03
2023-03-03T20:33:04.536Z,22.47
2023-03-03T20:35:42.637Z,17.43
2023-03-03T20:38:17.841Z,19.53
2023-03-03T20:40:50.632Z,14.70
2023-03-03T20:43:20.216Z,19.60
2023-03-03T20:46:00.267Z,15.90
2023-03-03T20:48:50.327Z,15.57
2023-03-03T20:51:40.965Z,15.60
2023-03-03T20:54:33.487Z,17.73
2023-03-03T20:57:12.472Z,13.77
2023-03-03T21:00:08.415Z,14.93
2023-03-03T21:02:46.721Z,14.93
2023-03-03T21:05:19.675Z,21.10
2023-03-03T21:07:56.857Z,19.10
2023-03-03T21:10:26.859Z,20.77
2023-03-03T21:12:55.289Z,12.33
2023-03-03T21:15:25.954Z,15.63
2023-03-03T21:17:54.743Z,16.20
2023-03-03T21:20:33.150Z,15.27
2023-03-03T21:23:01.647Z,12.23
2023-03-03T21:25:40.399Z,22.40
2023-03-03T21:28:18.161Z,21.20
2023-03-03T21:31:17.144Z,15.93
2023-03-03T21:33:57.050Z,16.33
2023-03-03T21:36:32.338Z,19.93
2023-03-03T21:39:02.165Z,15.80
2023-03-03T21:41:56.432Z,23.13
2023-03-03T21:44:35.150Z,19.77
2023-03-03T21:47:05.506Z,22.50
2023-03-03T21:49:31.940Z,24.20
2023-03-03T21:51:58.464Z,28.73
2023-03-03T21:54:25.473Z,23.40
2023-03-03T21:56:52.441Z,19.23
2023-03-03T21:59:19.215Z,18.63
2023-03-03T22:01:46.219Z,26.20
2023-03-03T22:04:12.902Z,15.60
2023-03-03T22:06:39.788Z,19.43
2023-03-03T22:09:07.339Z,28.73
2023-03-03T22:11:34.105Z,24.70
2023-03-03T22:14:00.784Z,21.20
2023-03-03T22:16:27.412Z,18.83
2023-03-03T22:18:53.803Z,20.53
2023-03-03T22:21:20.467Z,18.17
2023-03-03T22:23:46.939Z,14.70
2023-03-03T22:26:13.643Z,14.97
2023-03-03T22:28:41.461Z,22.50
2023-03-03T22:31:09.151Z,24.67
2023-03-03T22:33:35.687Z,20.67
2023-03-03T22:36:02.363Z,16.27
2023-03-03T22:38:28.757Z,21.67
2023-03-03T22:40:55.680Z,17.87
2023-03-03T22:43:22.465Z,22.90
2023-03-03T22:45:50.643Z,18.50
2023-03-03T22:48:17.152Z,21.80
2023-03-03T22:50:45.430Z,18.20
2023-03-03T22:53:11.933Z,17.73
2023-03-03T22:55:38.405Z,17.43
2023-03-03T22:58:05.712Z,20.30
2023-03-03T23:00:34.849Z,18.37
2023-03-03T23:03:01.487Z,25.43
2023-03-03T23:05:30.904Z,23.47
2023-03-03T23:07:57.317Z,20.80
2023-03-03T23:10:23.729Z,23.57
2023-03-03T23:12:50.410Z,20.13
2023-03-03T23:15:16.943Z,14.17
2023-03-03T23:17:44.971Z,21.77
2023-03-03T23:20:21.105Z,19.07
2023-03-03T23:22:47.995Z,23.13
2023-03-03T23:25:15.651Z,25.53
2023-03-03T23:27:43.704Z,19.00
2023-03-03T23:30:12.767Z,20.87
2023-03-03T23:32:39.397Z,18.63
2023-03-03T23:35:06.734Z,25.20
2023-03-03T23:37:33.231Z,16.10
2023-03-03T23:40:00.193Z,21.70
2023-03-03T23:42:30.786Z,24.10
2023-03-03T23:44:57.408Z,15.73
2023-03-03T23:47:24.054Z,25.50
2023-03-03T23:49:50.530Z,16.77
2023-03-03T23:52:18.361Z,25.60
2023-03-03T23:54:45.783Z,19.10
2023-03-03T23:57:12.380Z,19.27
2023-03-03T23:59:38.997Z,24.73
